Terminal Aerodrome Forecast
Issued by NWS

Home | Current Version | Previous Version | Text Only | Print | Product List | Glossary Off
Versions: 1 2 3 4 5 6 7 8 9 10 11 12 13 14

000
FTUS43 KMPX 181138
TAFRNH
TAF
KRNH 181138Z 1812/1912 05008KT P6SM OVC040
     FM181800 03010KT P6SM VCSH OVC020
     FM182100 01011KT P6SM VCSH OVC015
     FM182300 01012KT P6SM OVC010
     FM190100 02012KT P6SM BKN070
     FM190800 34006KT P6SM FEW250=

USA.gov is the U.S. government's official web portal to all federal, state and local government web resources and services.